createdAt,value
2023-01-20T04:46:00.576Z,98894.97
2023-01-20T04:48:28.792Z,98897.00
2023-01-20T04:50:56.981Z,98895.97
2023-01-20T04:53:25.120Z,98891.47
2023-01-20T04:55:53.297Z,98896.88
2023-01-20T04:58:21.546Z,98891.31
2023-01-20T05:00:49.825Z,98895.41
2023-01-20T05:03:19.402Z,98905.72
2023-01-20T05:05:54.440Z,98893.00
2023-01-20T05:08:23.038Z,98899.81
2023-01-20T05:10:51.271Z,98901.47
2023-01-20T05:13:19.482Z,98903.81
2023-01-20T05:15:47.654Z,98906.19
2023-01-20T05:18:15.853Z,98904.00
2023-01-20T05:20:47.658Z,98917.69
2023-01-20T05:23:16.029Z,98916.03
2023-01-20T05:25:51.059Z,98922.84
2023-01-20T05:28:21.324Z,98921.06
2023-01-20T05:30:49.581Z,98922.84
2023-01-20T05:33:17.851Z,98932.94
2023-01-20T05:35:47.376Z,98924.00
2023-01-20T05:38:15.624Z,98931.72
2023-01-20T05:40:43.952Z,98926.53
2023-01-20T05:43:13.112Z,98934.44
2023-01-20T05:45:42.227Z,98936.78
2023-01-20T05:48:10.441Z,98946.31
2023-01-20T05:50:38.659Z,98957.16
2023-01-20T05:53:08.211Z,98949.88
2023-01-20T05:55:36.404Z,98967.53
2023-01-20T05:58:05.105Z,98961.69
2023-01-20T06:00:33.608Z,98964.72
2023-01-20T06:03:01.979Z,98975.03
2023-01-20T06:05:30.277Z,98975.50
2023-01-20T06:07:59.389Z,98974.78
2023-01-20T06:10:28.945Z,98980.44
2023-01-20T06:12:58.020Z,98983.41
2023-01-20T06:15:26.518Z,98985.31
2023-01-20T06:17:56.749Z,98978.94
2023-01-20T06:20:24.907Z,98986.81
2023-01-20T06:22:56.487Z,98996.91
2023-01-20T06:25:24.617Z,98987.03
2023-01-20T06:27:54.134Z,98999.75
2023-01-20T06:30:22.460Z,98986.56
2023-01-20T06:32:50.594Z,98999.16
2023-01-20T06:35:18.774Z,99000.22
2023-01-20T06:37:46.937Z,99000.91
2023-01-20T06:40:15.712Z,99012.22
2023-01-20T06:42:43.986Z,99015.50
2023-01-20T06:45:14.419Z,99019.50
2023-01-20T06:47:42.702Z,99024.56
2023-01-20T06:50:11.836Z,99025.63
2023-01-20T06:52:40.080Z,99034.19
2023-01-20T06:55:09.264Z,99032.66
2023-01-20T06:57:37.471Z,99040.59
2023-01-20T07:00:07.220Z,99045.63
2023-01-20T07:02:36.822Z,99050.56
2023-01-20T07:05:08.059Z,99047.72
2023-01-20T07:07:36.281Z,99037.84
2023-01-20T07:10:05.934Z,99054.81
2023-01-20T07:12:34.103Z,99061.41
2023-01-20T07:15:02.271Z,99063.97
2023-01-20T07:17:30.445Z,99064.94
2023-01-20T07:20:00.011Z,99066.22
2023-01-20T07:22:28.242Z,99061.03
2023-01-20T07:24:56.404Z,99069.38
2023-01-20T07:27:24.591Z,99078.56
2023-01-20T07:29:52.754Z,99075.59
2023-01-20T07:32:20.979Z,99077.84
2023-01-20T07:34:50.309Z,99093.72
2023-01-20T07:37:19.873Z,99086.19
2023-01-20T07:39:48.096Z,99088.91
2023-01-20T07:42:16.274Z,99097.25
2023-01-20T07:44:44.439Z,99101.84
2023-01-20T07:47:12.615Z,99102.19
2023-01-20T07:49:40.741Z,99106.75
2023-01-20T07:52:08.956Z,99106.13
2023-01-20T07:54:38.510Z,99103.88
2023-01-20T07:57:06.882Z,99111.16
2023-01-20T07:59:35.073Z,99114.06
2023-01-20T08:02:03.313Z,99120.53
2023-01-20T08:04:31.565Z,99120.66
2023-01-20T08:06:59.791Z,99125.50
2023-01-20T08:09:28.573Z,99133.72
2023-01-20T08:11:58.092Z,99133.38
2023-01-20T08:14:26.535Z,99126.75
2023-01-20T08:16:55.299Z,99130.34
2023-01-20T08:19:23.556Z,99137.31
2023-01-20T08:21:51.789Z,99146.19
2023-01-20T08:24:19.993Z,99148.78
2023-01-20T08:26:48.322Z,99142.19
2023-01-20T08:29:17.883Z,99157.13
2023-01-20T08:31:46.549Z,99157.44
2023-01-20T08:34:14.793Z,99161.81
2023-01-20T08:36:43.529Z,99159.09
2023-01-20T08:39:15.519Z,99155.28
2023-01-20T08:41:46.194Z,99163.97
2023-01-20T08:44:15.595Z,99158.41
2023-01-20T08:46:46.216Z,99164.34
2023-01-20T08:49:17.632Z,99169.22
2023-01-20T08:51:46.312Z,99163.28
2023-01-20T08:54:15.309Z,99166.25
2023-01-20T08:56:43.567Z,99176.88
2023-01-20T08:59:12.479Z,99173.75
2023-01-20T09:01:42.135Z,99179.28
2023-01-20T09:04:12.271Z,99178.91
2023-01-20T09:06:45.879Z,99166.97
2023-01-20T09:09:16.220Z,99179.28
2023-01-20T09:11:44.927Z,99173.28
2023-01-20T09:14:13.343Z,99176.41
2023-01-20T09:16:41.534Z,99185.16
2023-01-20T09:19:11.108Z,99182.03
2023-01-20T09:21:40.439Z,99184.72
2023-01-20T09:24:09.303Z,99185.13
2023-01-20T09:26:40.494Z,99183.81
2023-01-20T09:29:12.543Z,99193.66
2023-01-20T09:31:44.165Z,99189.78
2023-01-20T09:34:19.508Z,99189.22
2023-01-20T09:36:52.148Z,99191.09
2023-01-20T09:39:38.978Z,99191.34
2023-01-20T09:42:43.841Z,99200.25
2023-01-20T09:45:25.498Z,99205.78
2023-01-20T09:48:04.039Z,99206.91
2023-01-20T09:51:03.197Z,99209.00
2023-01-20T09:53:44.161Z,99213.63
2023-01-20T09:56:16.975Z,99213.06
2023-01-20T09:58:53.671Z,99223.25
2023-01-20T10:01:30.573Z,99226.53
2023-01-20T10:04:06.194Z,99218.56
2023-01-20T10:06:41.109Z,99217.25
2023-01-20T10:09:22.235Z,99228.91
2023-01-20T10:11:53.107Z,99215.88
2023-01-20T10:14:29.727Z,99223.31
2023-01-20T10:17:05.792Z,99214.81
2023-01-20T10:19:42.362Z,99232.41
2023-01-20T10:22:19.199Z,99239.00
2023-01-20T10:24:55.451Z,99241.31
2023-01-20T10:27:28.274Z,99239.47
2023-01-20T10:30:05.789Z,99241.03
2023-01-20T10:32:37.339Z,99240.06
2023-01-20T10:35:15.601Z,99245.84
2023-01-20T10:37:45.563Z,99247.22
2023-01-20T10:40:33.530Z,99242.72
2023-01-20T10:43:12.050Z,99241.75
2023-01-20T10:45:57.751Z,99241.94
2023-01-20T10:48:45.431Z,99237.50
2023-01-20T10:51:21.035Z,99242.47
2023-01-20T10:53:59.771Z,99247.03
2023-01-20T10:56:42.408Z,99240.75
2023-01-20T10:59:16.572Z,99242.59
2023-01-20T11:01:56.208Z,99243.50
2023-01-20T11:04:28.607Z,99252.28
2023-01-20T11:07:00.988Z,99241.31
2023-01-20T11:09:37.167Z,99251.75
2023-01-20T11:12:12.121Z,99240.81
2023-01-20T11:14:40.395Z,99246.25
2023-01-20T11:17:15.159Z,99246.75
2023-01-20T11:19:49.379Z,99253.06
2023-01-20T11:22:22.572Z,99252.47
2023-01-20T11:24:55.997Z,99259.84
2023-01-20T11:27:28.156Z,99251.56
2023-01-20T11:30:01.164Z,99245.41
2023-01-20T11:32:33.734Z,99252.50
2023-01-20T11:35:03.205Z,99248.78
2023-01-20T11:37:38.971Z,99253.59
2023-01-20T11:40:38.916Z,99248.00
2023-01-20T11:43:10.910Z,99249.34
2023-01-20T11:45:39.389Z,99251.47
2023-01-20T11:48:21.489Z,99252.19
2023-01-20T11:50:56.155Z,99252.69
2023-01-20T11:53:27.593Z,99255.06
2023-01-20T11:56:14.512Z,99249.75
2023-01-20T11:58:54.741Z,99255.41
2023-01-20T12:01:26.586Z,99257.22
2023-01-20T12:04:25.170Z,99258.94
2023-01-20T12:06:59.486Z,99255.34
2023-01-20T12:09:31.576Z,99260.25
2023-01-20T12:12:06.069Z,99259.59
2023-01-20T12:14:40.070Z,99261.19
2023-01-20T12:17:36.896Z,99259.16
2023-01-20T12:20:15.384Z,99255.81
2023-01-20T12:22:56.023Z,99269.34
2023-01-20T12:25:28.945Z,99270.72
2023-01-20T12:28:04.765Z,99278.63
2023-01-20T12:30:44.235Z,99283.75
2023-01-20T12:33:24.731Z,99279.47
